sensor_id;sensor_type;location;lat;lon;timestamp;P1;durP1;ratioP1;P2;durP2;ratioP2
82292;SDS011;71892;14.836;105.234;2023-10-19T00:00:57;48.88;;;32.90;;
82292;SDS011;71892;14.836;105.234;2023-10-19T00:03:25;50.03;;;32.72;;
82292;SDS011;71892;14.836;105.234;2023-10-19T00:05:52;46.67;;;34.15;;
82292;SDS011;71892;14.836;105.234;2023-10-19T00:08:21;48.33;;;32.67;;
82292;SDS011;71892;14.836;105.234;2023-10-19T00:10:49;43.30;;;31.80;;
82292;SDS011;71892;14.836;105.234;2023-10-19T00:13:36;49.85;;;33.67;;
82292;SDS011;71892;14.836;105.234;2023-10-19T00:16:04;49.55;;;33.42;;
82292;SDS011;71892;14.836;105.234;2023-10-19T00:18:42;46.10;;;34.38;;
82292;SDS011;71892;14.836;105.234;2023-10-19T00:21:09;44.15;;;30.60;;
82292;SDS011;71892;14.836;105.234;2023-10-19T00:23:56;46.78;;;31.02;;
82292;SDS011;71892;14.836;105.234;2023-10-19T00:26:29;44.05;;;32.88;;
82292;SDS011;71892;14.836;105.234;2023-10-19T00:28:56;43.58;;;30.05;;
82292;SDS011;71892;14.836;105.234;2023-10-19T00:31:27;47.88;;;28.70;;
82292;SDS011;71892;14.836;105.234;2023-10-19T00:33:54;41.95;;;28.27;;
82292;SDS011;71892;14.836;105.234;2023-10-19T00:36:21;35.22;;;27.40;;
82292;SDS011;71892;14.836;105.234;2023-10-19T00:38:48;35.45;;;25.63;;
82292;SDS011;71892;14.836;105.234;2023-10-19T00:43:47;36.22;;;26.92;;
82292;SDS011;71892;14.836;105.234;2023-10-19T00:46:37;35.45;;;25.67;;
82292;SDS011;71892;14.836;105.234;2023-10-19T00:49:04;37.25;;;27.55;;
82292;SDS011;71892;14.836;105.234;2023-10-19T00:51:49;37.67;;;25.73;;
82292;SDS011;71892;14.836;105.234;2023-10-19T00:54:25;34.10;;;25.42;;
82292;SDS011;71892;14.836;105.234;2023-10-19T00:57:07;32.03;;;23.20;;
82292;SDS011;71892;14.836;105.234;2023-10-19T00:59:38;31.20;;;24.30;;
82292;SDS011;71892;14.836;105.234;2023-10-19T01:02:34;29.73;;;24.40;;
82292;SDS011;71892;14.836;105.234;2023-10-19T01:05:09;34.25;;;24.55;;
82292;SDS011;71892;14.836;105.234;2023-10-19T01:07:38;32.08;;;22.63;;
82292;SDS011;71892;14.836;105.234;2023-10-19T01:10:10;29.30;;;23.33;;
82292;SDS011;71892;14.836;105.234;2023-10-19T01:12:46;26.40;;;21.67;;
82292;SDS011;71892;14.836;105.234;2023-10-19T01:15:14;32.83;;;23.33;;
82292;SDS011;71892;14.836;105.234;2023-10-19T01:20:14;31.08;;;22.10;;
82292;SDS011;71892;14.836;105.234;2023-10-19T01:28:24;28.38;;;20.60;;
82292;SDS011;71892;14.836;105.234;2023-10-19T01:31:19;26.65;;;21.38;;
82292;SDS011;71892;14.836;105.234;2023-10-19T01:33:59;24.83;;;19.05;;
82292;SDS011;71892;14.836;105.234;2023-10-19T01:36:30;23.45;;;18.95;;
82292;SDS011;71892;14.836;105.234;2023-10-19T01:39:23;25.77;;;19.27;;
82292;SDS011;71892;14.836;105.234;2023-10-19T01:41:51;23.02;;;18.73;;
82292;SDS011;71892;14.836;105.234;2023-10-19T01:44:17;23.10;;;18.25;;
82292;SDS011;71892;14.836;105.234;2023-10-19T01:46:46;24.35;;;17.27;;
82292;SDS011;71892;14.836;105.234;2023-10-19T01:49:13;25.75;;;19.30;;
82292;SDS011;71892;14.836;105.234;2023-10-19T01:51:44;23.27;;;17.38;;
82292;SDS011;71892;14.836;105.234;2023-10-19T01:54:12;20.17;;;16.92;;
82292;SDS011;71892;14.836;105.234;2023-10-19T01:56:40;22.60;;;16.48;;
82292;SDS011;71892;14.836;105.234;2023-10-19T01:59:08;24.58;;;19.52;;
82292;SDS011;71892;14.836;105.234;2023-10-19T02:01:35;28.67;;;19.15;;
82292;SDS011;71892;14.836;105.234;2023-10-19T02:04:03;25.77;;;17.48;;
82292;SDS011;71892;14.836;105.234;2023-10-19T02:06:32;25.45;;;18.88;;
82292;SDS011;71892;14.836;105.234;2023-10-19T02:09:01;24.75;;;18.48;;
82292;SDS011;71892;14.836;105.234;2023-10-19T02:11:42;21.85;;;17.58;;
82292;SDS011;71892;14.836;105.234;2023-10-19T02:14:13;25.95;;;18.38;;
82292;SDS011;71892;14.836;105.234;2023-10-19T02:16:44;21.67;;;17.25;;
82292;SDS011;71892;14.836;105.234;2023-10-19T02:19:18;25.75;;;17.95;;
82292;SDS011;71892;14.836;105.234;2023-10-19T02:21:47;27.42;;;19.63;;
82292;SDS011;71892;14.836;105.234;2023-10-19T02:24:14;23.88;;;18.55;;
82292;SDS011;71892;14.836;105.234;2023-10-19T02:26:41;23.60;;;18.75;;
82292;SDS011;71892;14.836;105.234;2023-10-19T02:29:09;23.80;;;19.77;;
82292;SDS011;71892;14.836;105.234;2023-10-19T02:31:38;25.20;;;19.33;;
82292;SDS011;71892;14.836;105.234;2023-10-19T02:34:09;27.77;;;19.98;;
82292;SDS011;71892;14.836;105.234;2023-10-19T02:36:38;26.40;;;18.38;;
82292;SDS011;71892;14.836;105.234;2023-10-19T02:39:06;28.80;;;20.75;;
82292;SDS011;71892;14.836;105.234;2023-10-19T02:41:35;29.70;;;20.27;;
82292;SDS011;71892;14.836;105.234;2023-10-19T02:44:13;24.75;;;20.58;;
82292;SDS011;71892;14.836;105.234;2023-10-19T02:46:54;24.27;;;18.42;;
82292;SDS011;71892;14.836;105.234;2023-10-19T02:49:25;24.70;;;18.80;;
82292;SDS011;71892;14.836;105.234;2023-10-19T02:51:54;26.40;;;18.98;;
82292;SDS011;71892;14.836;105.234;2023-10-19T02:54:28;23.65;;;17.92;;
82292;SDS011;71892;14.836;105.234;2023-10-19T02:56:58;24.10;;;18.25;;
82292;SDS011;71892;14.836;105.234;2023-10-19T02:59:26;24.63;;;18.63;;
82292;SDS011;71892;14.836;105.234;2023-10-19T03:01:58;31.85;;;20.55;;
82292;SDS011;71892;14.836;105.234;2023-10-19T03:04:38;28.52;;;20.17;;
82292;SDS011;71892;14.836;105.234;2023-10-19T03:07:05;24.50;;;20.00;;
82292;SDS011;71892;14.836;105.234;2023-10-19T03:09:37;22.33;;;19.92;;
82292;SDS011;71892;14.836;105.234;2023-10-19T03:12:04;23.08;;;19.73;;
82292;SDS011;71892;14.836;105.234;2023-10-19T03:14:35;25.98;;;19.75;;
82292;SDS011;71892;14.836;105.234;2023-10-19T03:17:02;26.95;;;20.30;;
82292;SDS011;71892;14.836;105.234;2023-10-19T03:19:30;25.55;;;19.55;;
82292;SDS011;71892;14.836;105.234;2023-10-19T03:21:57;23.83;;;18.85;;
82292;SDS011;71892;14.836;105.234;2023-10-19T03:24:25;25.40;;;18.92;;
82292;SDS011;71892;14.836;105.234;2023-10-19T03:27:01;25.08;;;19.65;;
82292;SDS011;71892;14.836;105.234;2023-10-19T03:29:38;31.52;;;20.73;;
82292;SDS011;71892;14.836;105.234;2023-10-19T03:32:05;25.83;;;19.65;;
82292;SDS011;71892;14.836;105.234;2023-10-19T03:34:33;24.48;;;18.45;;
82292;SDS011;71892;14.836;105.234;2023-10-19T03:37:01;31.05;;;20.08;;
82292;SDS011;71892;14.836;105.234;2023-10-19T03:39:35;23.67;;;19.45;;
82292;SDS011;71892;14.836;105.234;2023-10-19T03:42:03;24.92;;;19.75;;
82292;SDS011;71892;14.836;105.234;2023-10-19T03:44:34;26.88;;;19.10;;
82292;SDS011;71892;14.836;105.234;2023-10-19T03:49:48;23.77;;;18.25;;
82292;SDS011;71892;14.836;105.234;2023-10-19T03:52:16;25.52;;;19.35;;
82292;SDS011;71892;14.836;105.234;2023-10-19T03:54:43;26.70;;;19.35;;
82292;SDS011;71892;14.836;105.234;2023-10-19T03:57:10;35.15;;;21.30;;
82292;SDS011;71892;14.836;105.234;2023-10-19T03:59:38;25.77;;;19.33;;
82292;SDS011;71892;14.836;105.234;2023-10-19T04:02:06;23.55;;;19.55;;
82292;SDS011;71892;14.836;105.234;2023-10-19T04:04:39;28.92;;;19.10;;
82292;SDS011;71892;14.836;105.234;2023-10-19T04:07:09;25.88;;;18.88;;
82292;SDS011;71892;14.836;105.234;2023-10-19T04:09:55;25.58;;;20.33;;
82292;SDS011;71892;14.836;105.234;2023-10-19T04:12:35;25.42;;;19.95;;
82292;SDS011;71892;14.836;105.234;2023-10-19T04:15:04;25.30;;;20.70;;
82292;SDS011;71892;14.836;105.234;2023-10-19T04:17:42;24.92;;;18.90;;
82292;SDS011;71892;14.836;105.234;2023-10-19T04:20:16;23.50;;;18.85;;
82292;SDS011;71892;14.836;105.234;2023-10-19T04:22:47;25.95;;;19.85;;
82292;SDS011;71892;14.836;105.234;2023-10-19T04:25:16;27.92;;;19.95;;
82292;SDS011;71892;14.836;105.234;2023-10-19T04:27:46;28.92;;;20.60;;
82292;SDS011;71892;14.836;105.234;2023-10-19T04:30:15;26.17;;;20.48;;
82292;SDS011;71892;14.836;105.234;2023-10-19T04:32:45;27.40;;;20.38;;
82292;SDS011;71892;14.836;105.234;2023-10-19T04:35:12;26.30;;;19.30;;
82292;SDS011;71892;14.836;105.234;2023-10-19T04:37:40;23.55;;;19.60;;
82292;SDS011;71892;14.836;105.234;2023-10-19T04:40:11;25.95;;;19.48;;
82292;SDS011;71892;14.836;105.234;2023-10-19T04:42:38;25.83;;;19.02;;
82292;SDS011;71892;14.836;105.234;2023-10-19T04:45:04;23.75;;;19.17;;
82292;SDS011;71892;14.836;105.234;2023-10-19T04:47:34;27.08;;;19.98;;
82292;SDS011;71892;14.836;105.234;2023-10-19T04:50:01;27.33;;;20.17;;
82292;SDS011;71892;14.836;105.234;2023-10-19T04:52:31;32.75;;;20.92;;
82292;SDS011;71892;14.836;105.234;2023-10-19T04:54:59;34.55;;;20.33;;
82292;SDS011;71892;14.836;105.234;2023-10-19T04:57:26;24.55;;;18.40;;
82292;SDS011;71892;14.836;105.234;2023-10-19T04:59:53;27.35;;;20.10;;
82292;SDS011;71892;14.836;105.234;2023-10-19T05:02:20;24.30;;;19.13;;
82292;SDS011;71892;14.836;105.234;2023-10-19T05:04:46;26.20;;;19.23;;
82292;SDS011;71892;14.836;105.234;2023-10-19T05:07:14;23.60;;;19.30;;
82292;SDS011;71892;14.836;105.234;2023-10-19T05:09:44;24.27;;;19.40;;
82292;SDS011;71892;14.836;105.234;2023-10-19T05:12:11;25.50;;;19.80;;
82292;SDS011;71892;14.836;105.234;2023-10-19T05:14:40;23.92;;;18.25;;
82292;SDS011;71892;14.836;105.234;2023-10-19T05:17:08;25.00;;;18.98;;
82292;SDS011;71892;14.836;105.234;2023-10-19T05:19:35;20.85;;;16.95;;
82292;SDS011;71892;14.836;105.234;2023-10-19T05:22:04;28.77;;;18.10;;
82292;SDS011;71892;14.836;105.234;2023-10-19T05:24:32;25.17;;;18.73;;
82292;SDS011;71892;14.836;105.234;2023-10-19T05:26:59;27.00;;;18.98;;
82292;SDS011;71892;14.836;105.234;2023-10-19T05:29:25;25.58;;;20.88;;
82292;SDS011;71892;14.836;105.234;2023-10-19T05:31:53;25.92;;;20.30;;
82292;SDS011;71892;14.836;105.234;2023-10-19T05:34:20;25.00;;;20.23;;
82292;SDS011;71892;14.836;105.234;2023-10-19T05:36:47;23.27;;;17.77;;
82292;SDS011;71892;14.836;105.234;2023-10-19T05:39:17;26.63;;;20.10;;
82292;SDS011;71892;14.836;105.234;2023-10-19T05:41:44;33.88;;;20.65;;
82292;SDS011;71892;14.836;105.234;2023-10-19T05:44:10;23.83;;;19.77;;
82292;SDS011;71892;14.836;105.234;2023-10-19T05:46:37;25.17;;;19.27;;
82292;SDS011;71892;14.836;105.234;2023-10-19T05:49:05;24.65;;;18.48;;
82292;SDS011;71892;14.836;105.234;2023-10-19T05:51:33;24.13;;;19.85;;
82292;SDS011;71892;14.836;105.234;2023-10-19T05:53:59;23.92;;;17.95;;
82292;SDS011;71892;14.836;105.234;2023-10-19T05:56:29;30.05;;;19.55;;
82292;SDS011;71892;14.836;105.234;2023-10-19T05:58:56;26.40;;;20.67;;
82292;SDS011;71892;14.836;105.234;2023-10-19T06:01:23;26.77;;;20.85;;
82292;SDS011;71892;14.836;105.234;2023-10-19T06:03:50;24.38;;;19.17;;
82292;SDS011;71892;14.836;105.234;2023-10-19T06:06:17;24.98;;;19.02;;
82292;SDS011;71892;14.836;105.234;2023-10-19T06:08:45;24.20;;;18.75;;
82292;SDS011;71892;14.836;105.234;2023-10-19T06:11:11;26.65;;;19.05;;
82292;SDS011;71892;14.836;105.234;2023-10-19T06:13:38;26.10;;;19.85;;
82292;SDS011;71892;14.836;105.234;2023-10-19T06:16:05;26.52;;;18.27;;
82292;SDS011;71892;14.836;105.234;2023-10-19T06:18:31;24.20;;;17.67;;
82292;SDS011;71892;14.836;105.234;2023-10-19T06:20:58;24.30;;;18.33;;
82292;SDS011;71892;14.836;105.234;2023-10-19T06:23:25;21.67;;;17.13;;
82292;SDS011;71892;14.836;105.234;2023-10-19T06:25:51;27.50;;;19.38;;
82292;SDS011;71892;14.836;105.234;2023-10-19T06:28:18;25.10;;;18.67;;
82292;SDS011;71892;14.836;105.234;2023-10-19T06:30:44;23.83;;;19.33;;
82292;SDS011;71892;14.836;105.234;2023-10-19T06:35:39;25.83;;;18.00;;
82292;SDS011;71892;14.836;105.234;2023-10-19T06:38:06;21.15;;;17.30;;
82292;SDS011;71892;14.836;105.234;2023-10-19T06:40:35;22.38;;;17.33;;
82292;SDS011;71892;14.836;105.234;2023-10-19T06:43:02;24.30;;;17.45;;
82292;SDS011;71892;14.836;105.234;2023-10-19T06:45:28;22.48;;;16.42;;
82292;SDS011;71892;14.836;105.234;2023-10-19T06:47:55;23.42;;;17.83;;
82292;SDS011;71892;14.836;105.234;2023-10-19T06:50:24;25.27;;;17.45;;
82292;SDS011;71892;14.836;105.234;2023-10-19T06:52:51;24.42;;;16.85;;
82292;SDS011;71892;14.836;105.234;2023-10-19T06:57:52;22.20;;;16.83;;
82292;SDS011;71892;14.836;105.234;2023-10-19T07:00:21;20.98;;;16.40;;
82292;SDS011;71892;14.836;105.234;2023-10-19T07:02:52;21.35;;;16.30;;
82292;SDS011;71892;14.836;105.234;2023-10-19T07:05:20;21.67;;;16.05;;
82292;SDS011;71892;14.836;105.234;2023-10-19T07:07:50;24.55;;;16.88;;
82292;SDS011;71892;14.836;105.234;2023-10-19T07:10:20;19.73;;;15.57;;
82292;SDS011;71892;14.836;105.234;2023-10-19T07:12:47;22.25;;;16.38;;
82292;SDS011;71892;14.836;105.234;2023-10-19T07:15:19;21.00;;;16.88;;
82292;SDS011;71892;14.836;105.234;2023-10-19T07:17:48;25.80;;;17.05;;
82292;SDS011;71892;14.836;105.234;2023-10-19T07:20:17;20.05;;;17.13;;
82292;SDS011;71892;14.836;105.234;2023-10-19T07:23:02;23.13;;;15.95;;
82292;SDS011;71892;14.836;105.234;2023-10-19T07:25:35;23.00;;;17.15;;
82292;SDS011;71892;14.836;105.234;2023-10-19T07:28:13;23.58;;;17.25;;
82292;SDS011;71892;14.836;105.234;2023-10-19T07:30:41;25.02;;;16.90;;
82292;SDS011;71892;14.836;105.234;2023-10-19T07:33:09;23.77;;;18.58;;
82292;SDS011;71892;14.836;105.234;2023-10-19T07:35:36;23.58;;;15.77;;
82292;SDS011;71892;14.836;105.234;2023-10-19T07:38:04;23.50;;;15.93;;
82292;SDS011;71892;14.836;105.234;2023-10-19T07:40:33;24.38;;;16.20;;
82292;SDS011;71892;14.836;105.234;2023-10-19T07:43:00;24.40;;;17.27;;
82292;SDS011;71892;14.836;105.234;2023-10-19T07:45:29;21.48;;;15.75;;
82292;SDS011;71892;14.836;105.234;2023-10-19T07:48:00;20.33;;;16.48;;
82292;SDS011;71892;14.836;105.234;2023-10-19T07:50:33;22.33;;;15.55;;
82292;SDS011;71892;14.836;105.234;2023-10-19T07:53:00;20.20;;;16.52;;
82292;SDS011;71892;14.836;105.234;2023-10-19T07:55:26;21.45;;;16.73;;
82292;SDS011;71892;14.836;105.234;2023-10-19T07:57:54;23.88;;;17.10;;
82292;SDS011;71892;14.836;105.234;2023-10-19T08:00:21;23.98;;;17.27;;
82292;SDS011;71892;14.836;105.234;2023-10-19T08:02:48;22.80;;;16.40;;
82292;SDS011;71892;14.836;105.234;2023-10-19T08:05:16;20.30;;;14.88;;
82292;SDS011;71892;14.836;105.234;2023-10-19T08:07:46;20.60;;;16.02;;
82292;SDS011;71892;14.836;105.234;2023-10-19T08:10:14;23.17;;;15.27;;
82292;SDS011;71892;14.836;105.234;2023-10-19T08:15:10;23.52;;;15.98;;
82292;SDS011;71892;14.836;105.234;2023-10-19T08:17:38;18.40;;;14.60;;
82292;SDS011;71892;14.836;105.234;2023-10-19T08:20:06;25.80;;;16.00;;
82292;SDS011;71892;14.836;105.234;2023-10-19T08:22:44;22.23;;;15.07;;
82292;SDS011;71892;14.836;105.234;2023-10-19T08:25:13;20.75;;;14.73;;
82292;SDS011;71892;14.836;105.234;2023-10-19T08:27:41;19.58;;;15.05;;
82292;SDS011;71892;14.836;105.234;2023-10-19T08:30:10;27.35;;;15.48;;
82292;SDS011;71892;14.836;105.234;2023-10-19T08:32:39;18.80;;;15.00;;
82292;SDS011;71892;14.836;105.234;2023-10-19T08:35:07;19.08;;;15.18;;
82292;SDS011;71892;14.836;105.234;2023-10-19T08:37:38;22.60;;;16.80;;
82292;SDS011;71892;14.836;105.234;2023-10-19T08:40:11;20.92;;;16.73;;
82292;SDS011;71892;14.836;105.234;2023-10-19T08:42:43;21.50;;;16.77;;
82292;SDS011;71892;14.836;105.234;2023-10-19T08:45:11;19.80;;;15.38;;
82292;SDS011;71892;14.836;105.234;2023-10-19T08:47:55;26.73;;;16.60;;
82292;SDS011;71892;14.836;105.234;2023-10-19T08:50:23;22.80;;;15.90;;
82292;SDS011;71892;14.836;105.234;2023-10-19T08:55:19;20.85;;;16.13;;
82292;SDS011;71892;14.836;105.234;2023-10-19T08:57:46;20.08;;;15.73;;
82292;SDS011;71892;14.836;105.234;2023-10-19T09:00:17;21.42;;;15.13;;
82292;SDS011;71892;14.836;105.234;2023-10-19T09:02:45;24.65;;;15.70;;
82292;SDS011;71892;14.836;105.234;2023-10-19T09:05:11;23.70;;;16.40;;
82292;SDS011;71892;14.836;105.234;2023-10-19T09:07:52;21.58;;;15.13;;
82292;SDS011;71892;14.836;105.234;2023-10-19T09:10:25;24.38;;;14.35;;
82292;SDS011;71892;14.836;105.234;2023-10-19T09:13:00;26.15;;;17.00;;
82292;SDS011;71892;14.836;105.234;2023-10-19T09:15:33;28.17;;;16.65;;
82292;SDS011;71892;14.836;105.234;2023-10-19T09:18:13;21.60;;;14.93;;
82292;SDS011;71892;14.836;105.234;2023-10-19T09:20:48;20.40;;;14.52;;
82292;SDS011;71892;14.836;105.234;2023-10-19T09:23:22;24.48;;;16.05;;
82292;SDS011;71892;14.836;105.234;2023-10-19T09:25:50;19.40;;;15.65;;
82292;SDS011;71892;14.836;105.234;2023-10-19T09:28:21;20.33;;;16.25;;
82292;SDS011;71892;14.836;105.234;2023-10-19T09:30:49;21.83;;;16.92;;
82292;SDS011;71892;14.836;105.234;2023-10-19T09:33:17;17.88;;;13.88;;
82292;SDS011;71892;14.836;105.234;2023-10-19T09:35:47;20.80;;;16.30;;
82292;SDS011;71892;14.836;105.234;2023-10-19T09:38:15;21.23;;;15.20;;
82292;SDS011;71892;14.836;105.234;2023-10-19T09:40:50;20.65;;;15.82;;
82292;SDS011;71892;14.836;105.234;2023-10-19T09:43:21;19.80;;;16.00;;
82292;SDS011;71892;14.836;105.234;2023-10-19T09:48:27;20.80;;;15.13;;
82292;SDS011;71892;14.836;105.234;2023-10-19T09:50:54;21.33;;;14.48;;
82292;SDS011;71892;14.836;105.234;2023-10-19T09:53:27;23.42;;;16.67;;
82292;SDS011;71892;14.836;105.234;2023-10-19T09:55:57;22.08;;;15.88;;
82292;SDS011;71892;14.836;105.234;2023-10-19T09:58:29;33.00;;;18.13;;
82292;SDS011;71892;14.836;105.234;2023-10-19T10:01:03;25.48;;;18.42;;
82292;SDS011;71892;14.836;105.234;2023-10-19T10:03:44;34.05;;;22.02;;
82292;SDS011;71892;14.836;105.234;2023-10-19T10:06:26;26.55;;;19.45;;
82292;SDS011;71892;14.836;105.234;2023-10-19T10:08:54;28.15;;;18.85;;
82292;SDS011;71892;14.836;105.234;2023-10-19T10:13:52;22.67;;;18.48;;
82292;SDS011;71892;14.836;105.234;2023-10-19T10:16:24;31.38;;;18.80;;
82292;SDS011;71892;14.836;105.234;2023-10-19T10:18:55;28.10;;;20.35;;
82292;SDS011;71892;14.836;105.234;2023-10-19T10:21:25;29.48;;;22.13;;
82292;SDS011;71892;14.836;105.234;2023-10-19T10:23:57;30.05;;;20.98;;
82292;SDS011;71892;14.836;105.234;2023-10-19T10:26:30;34.22;;;25.25;;
82292;SDS011;71892;14.836;105.234;2023-10-19T10:29:09;31.40;;;23.63;;
82292;SDS011;71892;14.836;105.234;2023-10-19T10:31:41;29.95;;;22.60;;
82292;SDS011;71892;14.836;105.234;2023-10-19T10:34:10;29.52;;;22.35;;
82292;SDS011;71892;14.836;105.234;2023-10-19T10:37:10;30.40;;;21.98;;
82292;SDS011;71892;14.836;105.234;2023-10-19T10:39:36;46.67;;;30.92;;
82292;SDS011;71892;14.836;105.234;2023-10-19T10:42:06;46.92;;;30.88;;
82292;SDS011;71892;14.836;105.234;2023-10-19T10:47:07;45.88;;;31.13;;
82292;SDS011;71892;14.836;105.234;2023-10-19T10:49:48;63.55;;;38.17;;
82292;SDS011;71892;14.836;105.234;2023-10-19T10:52:26;62.63;;;39.67;;
82292;SDS011;71892;14.836;105.234;2023-10-19T10:54:55;104.50;;;59.22;;
82292;SDS011;71892;14.836;105.234;2023-10-19T10:57:22;105.95;;;62.10;;
82292;SDS011;71892;14.836;105.234;2023-10-19T11:00:02;124.40;;;66.30;;
82292;SDS011;71892;14.836;105.234;2023-10-19T11:02:36;102.72;;;51.40;;
82292;SDS011;71892;14.836;105.234;2023-10-19T11:05:14;70.88;;;41.97;;
82292;SDS011;71892;14.836;105.234;2023-10-19T11:10:50;48.78;;;29.38;;
82292;SDS011;71892;14.836;105.234;2023-10-19T11:13:23;45.40;;;26.65;;
82292;SDS011;71892;14.836;105.234;2023-10-19T11:15:51;46.00;;;29.55;;
82292;SDS011;71892;14.836;105.234;2023-10-19T11:18:35;42.42;;;28.33;;
82292;SDS011;71892;14.836;105.234;2023-10-19T11:21:09;42.90;;;28.08;;
82292;SDS011;71892;14.836;105.234;2023-10-19T11:26:13;43.80;;;27.42;;
82292;SDS011;71892;14.836;105.234;2023-10-19T11:28:42;41.00;;;25.77;;
82292;SDS011;71892;14.836;105.234;2023-10-19T11:31:16;38.08;;;25.58;;
82292;SDS011;71892;14.836;105.234;2023-10-19T11:33:45;39.92;;;27.05;;
82292;SDS011;71892;14.836;105.234;2023-10-19T11:36:19;38.25;;;24.80;;
82292;SDS011;71892;14.836;105.234;2023-10-19T11:38:48;39.88;;;27.42;;
82292;SDS011;71892;14.836;105.234;2023-10-19T11:41:15;40.75;;;26.23;;
82292;SDS011;71892;14.836;105.234;2023-10-19T11:43:46;42.28;;;28.88;;
82292;SDS011;71892;14.836;105.234;2023-10-19T11:46:14;44.88;;;28.33;;
82292;SDS011;71892;14.836;105.234;2023-10-19T11:51:09;49.45;;;33.00;;
82292;SDS011;71892;14.836;105.234;2023-10-19T11:53:40;57.38;;;35.90;;
82292;SDS011;71892;14.836;105.234;2023-10-19T11:56:09;54.85;;;35.63;;
82292;SDS011;71892;14.836;105.234;2023-10-19T11:58:38;70.95;;;46.42;;
82292;SDS011;71892;14.836;105.234;2023-10-19T12:01:10;93.93;;;64.72;;
82292;SDS011;71892;14.836;105.234;2023-10-19T12:03:42;91.53;;;61.75;;
82292;SDS011;71892;14.836;105.234;2023-10-19T12:06:11;65.28;;;45.67;;
82292;SDS011;71892;14.836;105.234;2023-10-19T12:08:44;70.20;;;43.40;;
82292;SDS011;71892;14.836;105.234;2023-10-19T12:11:10;65.40;;;38.88;;
82292;SDS011;71892;14.836;105.234;2023-10-19T12:13:47;64.55;;;42.97;;
82292;SDS011;71892;14.836;105.234;2023-10-19T12:16:15;64.47;;;40.83;;
82292;SDS011;71892;14.836;105.234;2023-10-19T12:18:42;59.58;;;38.17;;
82292;SDS011;71892;14.836;105.234;2023-10-19T12:21:10;62.25;;;41.67;;
82292;SDS011;71892;14.836;105.234;2023-10-19T12:23:40;82.85;;;52.85;;
82292;SDS011;71892;14.836;105.234;2023-10-19T12:26:07;73.75;;;49.53;;
82292;SDS011;71892;14.836;105.234;2023-10-19T12:28:37;71.72;;;48.00;;
82292;SDS011;71892;14.836;105.234;2023-10-19T12:31:04;68.40;;;43.15;;
82292;SDS011;71892;14.836;105.234;2023-10-19T12:33:31;62.60;;;40.40;;
82292;SDS011;71892;14.836;105.234;2023-10-19T12:35:58;58.83;;;37.17;;
82292;SDS011;71892;14.836;105.234;2023-10-19T12:38:24;53.85;;;37.55;;
82292;SDS011;71892;14.836;105.234;2023-10-19T12:40:51;60.95;;;37.55;;
82292;SDS011;71892;14.836;105.234;2023-10-19T12:43:18;60.17;;;37.80;;
82292;SDS011;71892;14.836;105.234;2023-10-19T12:45:47;64.15;;;39.53;;
82292;SDS011;71892;14.836;105.234;2023-10-19T12:50:55;64.35;;;42.20;;
82292;SDS011;71892;14.836;105.234;2023-10-19T12:53:22;70.32;;;41.45;;
82292;SDS011;71892;14.836;105.234;2023-10-19T12:55:50;66.75;;;42.63;;
82292;SDS011;71892;14.836;105.234;2023-10-19T12:58:17;64.25;;;43.42;;
82292;SDS011;71892;14.836;105.234;2023-10-19T13:00:47;65.03;;;38.90;;
82292;SDS011;71892;14.836;105.234;2023-10-19T13:03:17;57.33;;;41.03;;
82292;SDS011;71892;14.836;105.234;2023-10-19T13:05:44;74.47;;;41.78;;
82292;SDS011;71892;14.836;105.234;2023-10-19T13:08:10;57.17;;;40.33;;
82292;SDS011;71892;14.836;105.234;2023-10-19T13:10:42;62.53;;;38.47;;
82292;SDS011;71892;14.836;105.234;2023-10-19T13:13:10;56.22;;;36.92;;
82292;SDS011;71892;14.836;105.234;2023-10-19T13:15:42;62.55;;;40.47;;
82292;SDS011;71892;14.836;105.234;2023-10-19T13:18:10;62.38;;;38.58;;
82292;SDS011;71892;14.836;105.234;2023-10-19T13:20:47;61.78;;;40.25;;
82292;SDS011;71892;14.836;105.234;2023-10-19T13:23:14;61.80;;;41.38;;
82292;SDS011;71892;14.836;105.234;2023-10-19T13:25:47;97.50;;;55.65;;
82292;SDS011;71892;14.836;105.234;2023-10-19T13:28:26;148.35;;;77.03;;
82292;SDS011;71892;14.836;105.234;2023-10-19T13:30:54;148.02;;;82.18;;
82292;SDS011;71892;14.836;105.234;2023-10-19T13:33:20;132.70;;;71.50;;
82292;SDS011;71892;14.836;105.234;2023-10-19T13:35:49;129.70;;;71.85;;
82292;SDS011;71892;14.836;105.234;2023-10-19T13:38:17;122.75;;;73.68;;
82292;SDS011;71892;14.836;105.234;2023-10-19T13:40:47;131.80;;;71.13;;
82292;SDS011;71892;14.836;105.234;2023-10-19T13:43:15;117.32;;;67.07;;
82292;SDS011;71892;14.836;105.234;2023-10-19T13:45:47;84.07;;;50.42;;
82292;SDS011;71892;14.836;105.234;2023-10-19T13:48:14;93.85;;;55.15;;
82292;SDS011;71892;14.836;105.234;2023-10-19T13:50:42;73.78;;;46.15;;
82292;SDS011;71892;14.836;105.234;2023-10-19T13:53:18;79.78;;;49.42;;
82292;SDS011;71892;14.836;105.234;2023-10-19T13:55:46;68.30;;;48.08;;
82292;SDS011;71892;14.836;105.234;2023-10-19T13:58:13;69.63;;;46.47;;
82292;SDS011;71892;14.836;105.234;2023-10-19T14:00:43;67.40;;;42.83;;
82292;SDS011;71892;14.836;105.234;2023-10-19T14:03:10;68.85;;;45.75;;
82292;SDS011;71892;14.836;105.234;2023-10-19T14:08:13;64.47;;;42.78;;
82292;SDS011;71892;14.836;105.234;2023-10-19T14:10:40;71.25;;;43.47;;
82292;SDS011;71892;14.836;105.234;2023-10-19T14:13:07;71.00;;;44.58;;
82292;SDS011;71892;14.836;105.234;2023-10-19T14:15:34;71.97;;;47.70;;
82292;SDS011;71892;14.836;105.234;2023-10-19T14:18:02;65.63;;;45.00;;
82292;SDS011;71892;14.836;105.234;2023-10-19T14:20:30;72.63;;;45.40;;
82292;SDS011;71892;14.836;105.234;2023-10-19T14:22:59;67.50;;;43.58;;
82292;SDS011;71892;14.836;105.234;2023-10-19T14:25:26;71.60;;;47.50;;
82292;SDS011;71892;14.836;105.234;2023-10-19T14:27:54;79.40;;;43.53;;
82292;SDS011;71892;14.836;105.234;2023-10-19T14:30:25;77.60;;;42.50;;
82292;SDS011;71892;14.836;105.234;2023-10-19T14:32:56;63.10;;;43.28;;
82292;SDS011;71892;14.836;105.234;2023-10-19T14:35:23;71.10;;;41.30;;
82292;SDS011;71892;14.836;105.234;2023-10-19T14:37:53;75.03;;;42.75;;
82292;SDS011;71892;14.836;105.234;2023-10-19T14:40:23;73.10;;;45.42;;
82292;SDS011;71892;14.836;105.234;2023-10-19T14:42:53;71.80;;;44.30;;
82292;SDS011;71892;14.836;105.234;2023-10-19T14:45:21;73.00;;;42.53;;
82292;SDS011;71892;14.836;105.234;2023-10-19T14:47:54;72.65;;;45.60;;
82292;SDS011;71892;14.836;105.234;2023-10-19T14:50:25;72.07;;;43.05;;
82292;SDS011;71892;14.836;105.234;2023-10-19T14:52:53;67.55;;;42.08;;
82292;SDS011;71892;14.836;105.234;2023-10-19T14:55:20;74.25;;;43.95;;
82292;SDS011;71892;14.836;105.234;2023-10-19T14:57:48;62.80;;;40.13;;